Terminal Aerodrome Forecast
Issued by NWS

Home | Current Version | Previous Version | Graphics & Text | Print | Product List | Glossary On
Versions: 1 2 3 4 5 6 7 8 9 10 11 12 13 14 15 16 17 18 19 20 21
279
FTUS43 KMPX 230944 AAB
TAFAXN
TAF AMD
KAXN 230944Z 2310/2406 33007KT P6SM VCSH BKN004 OVC100
     FM231200 31007KT P6SM VCSH BKN007 OVC015
     FM232000 03006KT P6SM -SHRA OVC020=

USA.gov is the U.S. government's official web portal to all federal, state and local government web resources and services.